Time;durP1;ratioP1;P1;durP2;ratioP2;P2;SDS_P1;SDS_P2;PMS_P1;PMS_P2;Temp;Humidity;BMP_temperature;BMP_pressure;BME280_temperature;BME280_humidity;BME280_pressure;Samples;Min_cycle;Max_cycle;Signal;HPM_P1;HPM_P2
2023/03/13 00:02:15;;;;;;;10.65;5.00;;;;;;;;;;5103224;28;20196;-69
2023/03/13 00:04:41;;;;;;;14.05;5.07;;;;;;;;;;5103229;28;20234;-69
2023/03/13 00:07:08;;;;;;;12.63;5.65;;;;;;;;;;5103254;28;20199;-69
2023/03/13 00:09:35;;;;;;;9.63;5.35;;;;;;;;;;5102839;28;20526;-69
2023/03/13 00:12:01;;;;;;;12.57;5.40;;;;;;;;;;5103010;28;20507;-69
2023/03/13 00:14:27;;;;;;;12.52;5.28;;;;;;;;;;5103083;28;20195;-69
2023/03/13 00:16:53;;;;;;;14.23;5.35;;;;;;;;;;5102231;28;20195;-69
2023/03/13 00:19:21;;;;;;;10.18;4.35;;;;;;;;;;5103057;28;20502;-69
2023/03/13 00:21:47;;;;;;;8.20;3.92;;;;;;;;;;5103254;28;20494;-69
2023/03/13 00:24:14;;;;;;;8.90;4.50;;;;;;;;;;5102919;28;20541;-69
2023/03/13 00:26:40;;;;;;;8.85;3.75;;;;;;;;;;5102811;28;20204;-69
2023/03/13 00:29:06;;;;;;;9.63;4.15;;;;;;;;;;5115518;28;20219;-69
2023/03/13 00:31:32;;;;;;;8.27;4.00;;;;;;;;;;5123321;28;20203;-69
2023/03/13 00:33:59;;;;;;;10.05;4.68;;;;;;;;;;5123337;28;20198;-69
2023/03/13 00:36:28;;;;;;;13.32;4.63;;;;;;;;;;5123221;28;20194;-69
2023/03/13 00:38:55;;;;;;;12.73;5.00;;;;;;;;;;5123059;28;20192;-69
2023/03/13 00:41:22;;;;;;;13.43;4.72;;;;;;;;;;5123284;28;20203;-69
2023/03/13 00:43:49;;;;;;;8.88;4.07;;;;;;;;;;5122999;28;20217;-69
2023/03/13 00:46:16;;;;;;;10.70;4.28;;;;;;;;;;5113650;28;20521;-69
2023/03/13 00:48:42;;;;;;;10.90;4.50;;;;;;;;;;5102421;28;20268;-69
2023/03/13 00:51:09;;;;;;;9.40;4.13;;;;;;;;;;5102825;28;20202;-69
2023/03/13 00:53:37;;;;;;;10.65;4.60;;;;;;;;;;5102690;28;20196;-69
2023/03/13 00:56:04;;;;;;;11.15;5.40;;;;;;;;;;5102739;28;20249;-69
2023/03/13 00:58:31;;;;;;;12.23;4.43;;;;;;;;;;5102359;28;20199;-69
2023/03/13 01:00:57;;;;;;;7.38;4.40;;;;;;;;;;5102843;28;20200;-68
2023/03/13 01:03:24;;;;;;;12.80;4.80;;;;;;;;;;5102575;28;20242;-69
2023/03/13 01:05:57;;;;;;;9.95;4.68;;;;;;;;;;5102469;28;20199;-68
2023/03/13 01:08:23;;;;;;;13.35;5.10;;;;;;;;;;5102312;28;20269;-69
2023/03/13 01:10:51;;;;;;;15.25;5.05;;;;;;;;;;5102488;28;20200;-69
2023/03/13 01:13:17;;;;;;;11.95;5.18;;;;;;;;;;5102423;28;20515;-69
2023/03/13 01:15:43;;;;;;;9.82;4.70;;;;;;;;;;5102174;28;20496;-69
2023/03/13 01:18:09;;;;;;;14.55;4.85;;;;;;;;;;5102535;28;20387;-69
2023/03/13 01:20:36;;;;;;;10.73;4.32;;;;;;;;;;5101954;28;20499;-69
2023/03/13 01:23:02;;;;;;;12.38;4.65;;;;;;;;;;5102056;28;20200;-69
2023/03/13 01:25:28;;;;;;;10.75;4.20;;;;;;;;;;5102341;28;20192;-69
2023/03/13 01:27:56;;;;;;;12.38;3.95;;;;;;;;;;5103161;28;20216;-69
2023/03/13 01:30:22;;;;;;;12.75;4.15;;;;;;;;;;5105915;28;20196;-69
2023/03/13 01:32:48;;;;;;;10.50;4.22;;;;;;;;;;5105942;28;20241;-69
2023/03/13 01:35:14;;;;;;;9.23;4.35;;;;;;;;;;5105752;28;20219;-69
2023/03/13 01:37:41;;;;;;;10.20;4.63;;;;;;;;;;5105962;28;20269;-69
2023/03/13 01:40:07;;;;;;;11.77;4.30;;;;;;;;;;5105832;28;20191;-69
2023/03/13 01:42:48;;;;;;;13.93;4.57;;;;;;;;;;5105948;28;20196;-69
2023/03/13 01:45:29;;;;;;;7.85;4.13;;;;;;;;;;5106048;28;20234;-68
2023/03/13 01:47:57;;;;;;;12.32;4.15;;;;;;;;;;5105380;28;20195;-69
2023/03/13 01:50:23;;;;;;;12.52;4.30;;;;;;;;;;5105509;28;20208;-69
2023/03/13 01:52:50;;;;;;;10.95;4.97;;;;;;;;;;5105706;28;20196;-69
2023/03/13 01:55:17;;;;;;;11.48;4.40;;;;;;;;;;5105435;28;20195;-69
2023/03/13 01:57:45;;;;;;;11.25;4.70;;;;;;;;;;5105653;28;20250;-69
2023/03/13 02:00:15;;;;;;;10.38;4.10;;;;;;;;;;5105109;28;20205;-69
2023/03/13 02:02:43;;;;;;;10.00;4.35;;;;;;;;;;5105537;28;20258;-69
2023/03/13 02:05:11;;;;;;;10.40;4.68;;;;;;;;;;5105575;28;20199;-69
2023/03/13 02:07:40;;;;;;;9.95;4.38;;;;;;;;;;5105059;28;20195;-69
2023/03/13 02:10:07;;;;;;;8.88;4.28;;;;;;;;;;5104896;28;20220;-69
2023/03/13 02:12:34;;;;;;;10.63;4.43;;;;;;;;;;5105422;28;20203;-69
2023/03/13 02:15:02;;;;;;;11.85;4.47;;;;;;;;;;5105159;28;20195;-69
2023/03/13 02:17:29;;;;;;;12.13;4.68;;;;;;;;;;5104951;28;20234;-69
2023/03/13 02:19:55;;;;;;;9.75;4.07;;;;;;;;;;5105171;28;20191;-69
2023/03/13 02:22:24;;;;;;;9.52;3.88;;;;;;;;;;5104737;28;20218;-69
2023/03/13 02:24:55;;;;;;;10.68;4.35;;;;;;;;;;5105252;28;20572;-69
2023/03/13 02:27:22;;;;;;;7.30;3.80;;;;;;;;;;5104873;28;20219;-69
2023/03/13 02:29:49;;;;;;;12.32;4.25;;;;;;;;;;5104623;28;20242;-70
2023/03/13 02:32:15;;;;;;;12.13;4.47;;;;;;;;;;5104776;28;20241;-69
2023/03/13 02:34:43;;;;;;;9.18;4.28;;;;;;;;;;5104703;28;20233;-69
2023/03/13 02:37:11;;;;;;;10.38;4.50;;;;;;;;;;5105071;28;20209;-69
2023/03/13 02:39:39;;;;;;;11.55;4.65;;;;;;;;;;5103614;28;20206;-69
2023/03/13 02:42:05;;;;;;;11.07;4.38;;;;;;;;;;5090399;28;20204;-69
2023/03/13 02:44:37;;;;;;;7.55;4.50;;;;;;;;;;5084189;28;20269;-69
2023/03/13 02:47:03;;;;;;;8.18;4.28;;;;;;;;;;5084173;28;20557;-69
2023/03/13 02:49:30;;;;;;;13.35;5.05;;;;;;;;;;5083683;28;20216;-69
2023/03/13 02:51:57;;;;;;;10.73;4.18;;;;;;;;;;5084299;28;20424;-69
2023/03/13 02:54:26;;;;;;;10.60;4.03;;;;;;;;;;5087866;28;20496;-69
2023/03/13 02:56:57;;;;;;;8.15;4.50;;;;;;;;;;5098389;28;20196;-69
2023/03/13 02:59:24;;;;;;;8.00;4.22;;;;;;;;;;5103897;28;20195;-69
2023/03/13 03:01:52;;;;;;;7.63;4.20;;;;;;;;;;5104591;28;20245;-68
2023/03/13 03:04:19;;;;;;;8.13;4.15;;;;;;;;;;5103933;28;20499;-68
2023/03/13 03:06:46;;;;;;;11.90;4.68;;;;;;;;;;5104210;28;20202;-69
2023/03/13 03:09:12;;;;;;;12.95;4.57;;;;;;;;;;5103630;28;20208;-69
2023/03/13 03:11:38;;;;;;;9.90;4.10;;;;;;;;;;5104126;28;20196;-69
2023/03/13 03:14:04;;;;;;;8.65;4.07;;;;;;;;;;5103925;28;20195;-69
2023/03/13 03:16:31;;;;;;;10.52;4.47;;;;;;;;;;5103746;28;20208;-69
2023/03/13 03:18:59;;;;;;;7.60;4.03;;;;;;;;;;5103634;28;20222;-69
2023/03/13 03:21:25;;;;;;;10.35;4.03;;;;;;;;;;5103767;28;20199;-69
2023/03/13 03:23:51;;;;;;;7.57;3.63;;;;;;;;;;5103894;28;20208;-69
2023/03/13 03:26:17;;;;;;;13.07;4.10;;;;;;;;;;5103565;28;20204;-68
2023/03/13 03:28:44;;;;;;;8.02;3.88;;;;;;;;;;5103465;28;20223;-69
2023/03/13 03:31:11;;;;;;;7.65;4.10;;;;;;;;;;5103619;28;20233;-69
2023/03/13 03:33:37;;;;;;;13.77;4.22;;;;;;;;;;5103960;28;20208;-69
2023/03/13 03:36:06;;;;;;;8.30;3.92;;;;;;;;;;5101562;28;20248;-69
2023/03/13 03:38:33;;;;;;;11.13;3.47;;;;;;;;;;5083240;28;20210;-69
2023/03/13 03:40:59;;;;;;;10.15;4.03;;;;;;;;;;5083434;28;20196;-68
2023/03/13 03:43:25;;;;;;;9.95;4.07;;;;;;;;;;5083805;28;20204;-69
2023/03/13 03:45:51;;;;;;;11.20;4.28;;;;;;;;;;5083138;28;20264;-69
2023/03/13 03:48:18;;;;;;;13.23;4.50;;;;;;;;;;5082891;28;20266;-69
2023/03/13 03:50:44;;;;;;;11.57;4.60;;;;;;;;;;5082435;28;20258;-69
2023/03/13 03:53:12;;;;;;;8.45;5.03;;;;;;;;;;5082325;28;20203;-69
2023/03/13 03:55:38;;;;;;;10.75;5.00;;;;;;;;;;5083256;28;20197;-69
2023/03/13 03:58:05;;;;;;;10.02;4.65;;;;;;;;;;5082484;28;20420;-69
2023/03/13 04:00:31;;;;;;;10.48;4.85;;;;;;;;;;5082437;28;20192;-69
2023/03/13 04:02:57;;;;;;;13.35;4.97;;;;;;;;;;5082809;28;20499;-69
2023/03/13 04:05:24;;;;;;;13.68;4.90;;;;;;;;;;5082933;28;20551;-69
2023/03/13 04:07:50;;;;;;;10.25;4.80;;;;;;;;;;5082814;28;20206;-69
2023/03/13 04:10:18;;;;;;;11.45;5.10;;;;;;;;;;5082319;28;20434;-69
2023/03/13 04:12:44;;;;;;;11.43;4.70;;;;;;;;;;5082567;28;20242;-69
2023/03/13 04:15:11;;;;;;;10.38;3.97;;;;;;;;;;5082364;28;20472;-69
2023/03/13 04:17:37;;;;;;;15.95;5.07;;;;;;;;;;5082407;28;20246;-69
2023/03/13 04:20:05;;;;;;;9.40;4.25;;;;;;;;;;5082405;28;20208;-69
2023/03/13 04:22:31;;;;;;;9.90;4.88;;;;;;;;;;5082327;28;20268;-69
2023/03/13 04:24:57;;;;;;;7.65;3.80;;;;;;;;;;5082648;28;20519;-69
2023/03/13 04:27:25;;;;;;;10.30;4.68;;;;;;;;;;5082309;28;20216;-69
2023/03/13 04:29:51;;;;;;;10.85;4.70;;;;;;;;;;5082185;28;20216;-69
2023/03/13 04:32:18;;;;;;;11.82;4.63;;;;;;;;;;5082560;28;20386;-69
2023/03/13 04:34:44;;;;;;;10.52;4.07;;;;;;;;;;5082446;28;20200;-69
2023/03/13 04:37:10;;;;;;;11.60;4.07;;;;;;;;;;5082372;28;20196;-69
2023/03/13 04:39:36;;;;;;;7.68;3.83;;;;;;;;;;5082041;28;20208;-69
2023/03/13 04:42:03;;;;;;;5.68;3.13;;;;;;;;;;5082157;28;20204;-69
2023/03/13 04:44:30;;;;;;;7.15;2.83;;;;;;;;;;5082293;28;20395;-69
2023/03/13 04:46:57;;;;;;;6.63;2.20;;;;;;;;;;5082161;28;20394;-69
2023/03/13 04:49:23;;;;;;;3.35;2.05;;;;;;;;;;5081878;28;20212;-69
2023/03/13 04:51:49;;;;;;;5.43;2.00;;;;;;;;;;5082298;28;20497;-68
2023/03/13 04:54:16;;;;;;;3.67;1.73;;;;;;;;;;5081988;28;20203;-69
2023/03/13 04:56:42;;;;;;;4.00;2.13;;;;;;;;;;5082088;28;20363;-69
2023/03/13 04:59:08;;;;;;;3.40;2.10;;;;;;;;;;5082445;28;20383;-69
2023/03/13 05:01:36;;;;;;;4.45;2.03;;;;;;;;;;5082274;28;20414;-69
2023/03/13 05:04:02;;;;;;;6.80;2.05;;;;;;;;;;5085553;28;20234;-69
2023/03/13 05:06:28;;;;;;;3.75;1.80;;;;;;;;;;5086164;28;20234;-69
2023/03/13 05:08:55;;;;;;;4.47;2.13;;;;;;;;;;5086000;28;20204;-69
2023/03/13 05:11:21;;;;;;;5.80;2.50;;;;;;;;;;5085877;28;20233;-69
2023/03/13 05:13:47;;;;;;;2.95;2.30;;;;;;;;;;5086161;28;20196;-69
2023/03/13 05:16:13;;;;;;;5.40;2.38;;;;;;;;;;5085839;28;20196;-69
2023/03/13 05:18:41;;;;;;;5.63;2.40;;;;;;;;;;5085766;28;20200;-69
2023/03/13 05:21:08;;;;;;;5.82;2.25;;;;;;;;;;5085869;28;20418;-69
2023/03/13 05:23:34;;;;;;;1.70;1.27;;;;;;;;;;5085647;28;20204;-69
2023/03/13 05:26:00;;;;;;;2.08;1.50;;;;;;;;;;5086127;28;20511;-69
2023/03/13 05:28:27;;;;;;;2.97;1.40;;;;;;;;;;5085413;28;20229;-69
2023/03/13 05:30:53;;;;;;;4.72;1.45;;;;;;;;;;5085422;28;20220;-69
2023/03/13 05:33:19;;;;;;;3.33;1.05;;;;;;;;;;5085637;28;20197;-69
2023/03/13 05:35:47;;;;;;;3.95;1.48;;;;;;;;;;5085586;28;20197;-69
2023/03/13 05:38:14;;;;;;;3.80;1.40;;;;;;;;;;5085604;28;20200;-69
2023/03/13 05:40:40;;;;;;;4.20;1.30;;;;;;;;;;5085082;28;20200;-69
2023/03/13 05:43:06;;;;;;;1.38;1.20;;;;;;;;;;5085754;28;20200;-69
2023/03/13 05:45:33;;;;;;;1.42;1.10;;;;;;;;;;5085535;28;20200;-69
2023/03/13 05:47:59;;;;;;;3.08;0.95;;;;;;;;;;5085348;28;20203;-69
2023/03/13 05:50:25;;;;;;;3.13;1.30;;;;;;;;;;5084909;28;20216;-69
2023/03/13 05:52:53;;;;;;;2.05;1.20;;;;;;;;;;5085239;28;20492;-70
2023/03/13 05:55:19;;;;;;;3.28;1.40;;;;;;;;;;5085478;28;20366;-70
2023/03/13 05:57:46;;;;;;;1.90;1.33;;;;;;;;;;5085157;28;20211;-70
2023/03/13 06:00:13;;;;;;;2.60;2.40;;;;;;;;;;5084954;28;20192;-70
2023/03/13 06:02:39;;;;;;;7.18;5.45;;;;;;;;;;5099133;28;20196;-70
2023/03/13 06:05:06;;;;;;;4.70;1.50;;;;;;;;;;5105127;28;20199;-70
2023/03/13 06:07:32;;;;;;;5.72;1.52;;;;;;;;;;5104926;28;20203;-70
2023/03/13 06:10:00;;;;;;;6.80;2.15;;;;;;;;;;5104982;28;20228;-70
2023/03/13 06:12:27;;;;;;;1.70;1.45;;;;;;;;;;5105088;28;20274;-70
2023/03/13 06:14:53;;;;;;;3.55;1.80;;;;;;;;;;5103807;28;20499;-70
2023/03/13 06:17:19;;;;;;;1.92;1.10;;;;;;;;;;5105191;28;20405;-70
2023/03/13 06:19:46;;;;;;;3.40;1.23;;;;;;;;;;5104548;28;20424;-70
2023/03/13 06:22:12;;;;;;;1.45;1.05;;;;;;;;;;5104628;28;20196;-70
2023/03/13 06:24:39;;;;;;;1.00;0.90;;;;;;;;;;5104982;28;20241;-70
2023/03/13 06:27:06;;;;;;;1.52;0.75;;;;;;;;;;5104719;28;20202;-70
2023/03/13 06:29:33;;;;;;;2.00;1.00;;;;;;;;;;5104535;28;20253;-70
2023/03/13 06:31:59;;;;;;;2.47;0.80;;;;;;;;;;5105005;28;20435;-71
2023/03/13 06:34:25;;;;;;;3.45;1.17;;;;;;;;;;5104590;28;20395;-70
2023/03/13 06:36:51;;;;;;;0.98;0.80;;;;;;;;;;5104174;28;20509;-70
2023/03/13 06:39:18;;;;;;;3.63;0.82;;;;;;;;;;5104188;28;20202;-70
2023/03/13 06:41:44;;;;;;;2.90;1.02;;;;;;;;;;5104377;28;20217;-69
2023/03/13 06:44:12;;;;;;;1.50;1.00;;;;;;;;;;5104436;28;20503;-69
2023/03/13 06:46:38;;;;;;;0.70;0.68;;;;;;;;;;5104184;28;20196;-69
2023/03/13 06:49:04;;;;;;;1.40;0.80;;;;;;;;;;5100935;28;20202;-70
2023/03/13 06:51:31;;;;;;;9.05;1.30;;;;;;;;;;5089653;28;20247;-70
2023/03/13 06:53:57;;;;;;;9.10;1.83;;;;;;;;;;5095322;28;20215;-60
2023/03/13 06:56:24;;;;;;;0.80;0.80;;;;;;;;;;5096840;28;20207;-60
2023/03/13 06:58:50;;;;;;;0.88;0.70;;;;;;;;;;5090656;28;20260;-60
2023/03/13 07:01:18;;;;;;;2.85;0.85;;;;;;;;;;5089118;28;20208;-60
2023/03/13 07:03:44;;;;;;;2.20;0.80;;;;;;;;;;5082401;28;20519;-60
2023/03/13 07:06:11;;;;;;;1.05;0.55;;;;;;;;;;5083177;28;20531;-60
2023/03/13 07:08:38;;;;;;;2.42;0.45;;;;;;;;;;5085871;28;20257;-60
2023/03/13 07:11:05;;;;;;;2.08;0.55;;;;;;;;;;5080034;28;20228;-59
2023/03/13 07:13:32;;;;;;;0.47;0.47;;;;;;;;;;5094897;28;20223;-60
2023/03/13 07:15:59;;;;;;;0.95;0.30;;;;;;;;;;5093246;28;20207;-60
2023/03/13 07:18:27;;;;;;;0.45;0.43;;;;;;;;;;5096354;28;20226;-60
2023/03/13 07:20:54;;;;;;;0.57;0.40;;;;;;;;;;5096700;28;20462;-60
2023/03/13 07:23:20;;;;;;;1.05;0.50;;;;;;;;;;5096843;28;21037;-60
2023/03/13 07:25:52;;;;;;;1.77;0.63;;;;;;;;;;5096875;28;20539;-60
2023/03/13 07:28:18;;;;;;;0.40;0.40;;;;;;;;;;5097716;28;20453;-60
2023/03/13 07:30:44;;;;;;;0.75;0.40;;;;;;;;;;5096471;28;20239;-61
2023/03/13 07:33:10;;;;;;;0.77;0.77;;;;;;;;;;5094363;28;20593;-60
2023/03/13 07:35:38;;;;;;;0.40;0.40;;;;;;;;;;5095501;28;20220;-61
2023/03/13 07:38:05;;;;;;;1.88;0.38;;;;;;;;;;5097161;28;20211;-61
2023/03/13 07:40:31;;;;;;;0.30;0.30;;;;;;;;;;5097175;28;20212;-60
2023/03/13 07:42:57;;;;;;;0.38;0.38;;;;;;;;;;5096912;28;20239;-61
2023/03/13 07:45:23;;;;;;;0.52;0.35;;;;;;;;;;5096158;28;20212;-61
2023/03/13 07:47:50;;;;;;;0.65;0.60;;;;;;;;;;5096846;28;20565;-60
2023/03/13 07:50:16;;;;;;;1.10;0.40;;;;;;;;;;5096463;28;20554;-60
2023/03/13 07:52:44;;;;;;;0.28;0.28;;;;;;;;;;5097531;28;20439;-59
2023/03/13 07:55:10;;;;;;;0.85;0.57;;;;;;;;;;5096009;28;20229;-61
2023/03/13 07:57:36;;;;;;;0.50;0.43;;;;;;;;;;5093842;28;20497;-60
2023/03/13 08:00:05;;;;;;;0.50;0.30;;;;;;;;;;5097064;28;20253;-60
2023/03/13 08:02:31;;;;;;;1.95;0.50;;;;;;;;;;5096099;28;20424;-60
2023/03/13 08:04:57;;;;;;;1.27;0.45;;;;;;;;;;5095944;28;20211;-60
2023/03/13 08:07:23;;;;;;;1.13;0.40;;;;;;;;;;5096228;28;20511;-60
2023/03/13 08:09:51;;;;;;;0.40;0.40;;;;;;;;;;5096663;28;20527;-61
2023/03/13 08:12:17;;;;;;;0.45;0.45;;;;;;;;;;5096665;28;20223;-61
2023/03/13 08:14:44;;;;;;;0.50;0.50;;;;;;;;;;5095260;28;20218;-61
2023/03/13 08:17:10;;;;;;;0.65;0.65;;;;;;;;;;5095800;28;20211;-60
2023/03/13 08:19:37;;;;;;;0.45;0.45;;;;;;;;;;5087576;28;20223;-61
2023/03/13 08:22:04;;;;;;;1.60;0.50;;;;;;;;;;5086127;28;20215;-61
2023/03/13 08:24:30;;;;;;;0.45;0.45;;;;;;;;;;5088988;28;20260;-61
2023/03/13 08:26:58;;;;;;;1.33;1.05;;;;;;;;;;5082331;28;20354;-61
2023/03/13 08:29:24;;;;;;;2.00;0.82;;;;;;;;;;5076468;28;20227;-61
2023/03/13 08:31:51;;;;;;;0.45;0.45;;;;;;;;;;5090100;28;20234;-61
2023/03/13 08:34:18;;;;;;;2.20;0.40;;;;;;;;;;5095349;28;20253;-60
2023/03/13 08:36:44;;;;;;;1.33;0.57;;;;;;;;;;5093718;28;20306;-59
2023/03/13 08:39:11;;;;;;;1.10;0.50;;;;;;;;;;5094781;28;20211;-62
2023/03/13 08:41:39;;;;;;;0.52;0.52;;;;;;;;;;5095442;28;20562;-60
2023/03/13 08:44:07;;;;;;;0.60;0.60;;;;;;;;;;5096033;28;20215;-59
2023/03/13 08:46:35;;;;;;;1.00;0.60;;;;;;;;;;5096231;28;20208;-60
2023/03/13 08:49:02;;;;;;;3.40;0.73;;;;;;;;;;5096339;28;20211;-60
2023/03/13 08:51:29;;;;;;;0.60;0.60;;;;;;;;;;5095544;28;20578;-60
2023/03/13 08:53:56;;;;;;;0.75;0.60;;;;;;;;;;5096598;28;20218;-58
2023/03/13 08:56:23;;;;;;;0.40;0.40;;;;;;;;;;5095371;28;20215;-60
2023/03/13 08:58:50;;;;;;;1.75;0.50;;;;;;;;;;5095331;28;20218;-60
2023/03/13 09:01:17;;;;;;;1.30;0.70;;;;;;;;;;5089234;28;20745;-60
2023/03/13 09:03:44;;;;;;;1.50;0.47;;;;;;;;;;5082957;28;20212;-60
2023/03/13 09:06:11;;;;;;;1.85;0.50;;;;;;;;;;5082557;28;20219;-60
2023/03/13 09:08:38;;;;;;;0.90;0.57;;;;;;;;;;5091851;28;20409;-60
2023/03/13 09:11:05;;;;;;;0.90;0.55;;;;;;;;;;5084063;28;20321;-60
2023/03/13 09:13:32;;;;;;;1.70;0.70;;;;;;;;;;5085326;28;20211;-60
2023/03/13 09:15:59;;;;;;;0.47;0.40;;;;;;;;;;5085484;28;20555;-59
2023/03/13 09:18:27;;;;;;;0.73;0.40;;;;;;;;;;5095253;28;20311;-60
2023/03/13 09:20:53;;;;;;;1.60;0.65;;;;;;;;;;5094815;28;20540;-59
2023/03/13 09:23:20;;;;;;;1.48;0.60;;;;;;;;;;5095889;28;20210;-59
2023/03/13 09:25:46;;;;;;;2.72;0.50;;;;;;;;;;5096627;28;20215;-60
2023/03/13 09:28:12;;;;;;;1.25;0.82;;;;;;;;;;5094639;28;20457;-59
2023/03/13 09:30:39;;;;;;;0.60;0.60;;;;;;;;;;5091446;28;20387;-60
2023/03/13 09:33:05;;;;;;;0.45;0.45;;;;;;;;;;5091806;28;20430;-60
2023/03/13 09:35:32;;;;;;;0.60;0.60;;;;;;;;;;5091418;28;20393;-60
2023/03/13 09:37:59;;;;;;;0.45;0.40;;;;;;;;;;5090230;28;20208;-59
2023/03/13 09:40:26;;;;;;;2.90;0.63;;;;;;;;;;5087656;28;20205;-60
2023/03/13 09:42:54;;;;;;;0.80;0.47;;;;;;;;;;5088273;28;20211;-60
2023/03/13 09:45:23;;;;;;;2.47;0.50;;;;;;;;;;5092313;28;20529;-60
2023/03/13 09:47:52;;;;;;;1.05;0.45;;;;;;;;;;5087172;28;20395;-61
2023/03/13 09:50:19;;;;;;;0.70;0.50;;;;;;;;;;5092981;28;20215;-61
2023/03/13 09:52:49;;;;;;;2.40;0.60;;;;;;;;;;5098077;28;20533;-61
2023/03/13 09:55:20;;;;;;;2.60;0.68;;;;;;;;;;5086887;28;20204;-60
2023/03/13 09:57:49;;;;;;;2.53;0.70;;;;;;;;;;5099338;28;20625;-60
2023/03/13 10:00:18;;;;;;;0.70;0.70;;;;;;;;;;5098073;28;20234;-59
2023/03/13 10:02:46;;;;;;;4.72;0.60;;;;;;;;;;5098238;28;20204;-60
2023/03/13 10:05:15;;;;;;;1.88;0.80;;;;;;;;;;5099123;28;20227;-61
2023/03/13 10:07:41;;;;;;;1.15;0.80;;;;;;;;;;5098618;28;20406;-60
2023/03/13 10:10:15;;;;;;;2.33;0.82;;;;;;;;;;5098843;28;20223;-60
2023/03/13 10:12:43;;;;;;;3.72;0.70;;;;;;;;;;5097051;28;20235;-60
2023/03/13 10:15:32;;;;;;;0.70;0.70;;;;;;;;;;5099181;28;20208;-60
2023/03/13 10:17:59;;;;;;;2.88;1.05;;;;;;;;;;5098364;28;20215;-60
2023/03/13 10:20:27;;;;;;;1.55;0.80;;;;;;;;;;5095241;28;20218;-60
2023/03/13 10:22:57;;;;;;;2.78;0.80;;;;;;;;;;5092707;28;20469;-60
2023/03/13 10:25:28;;;;;;;3.20;0.80;;;;;;;;;;5092859;28;20211;-61
2023/03/13 10:27:54;;;;;;;1.38;0.98;;;;;;;;;;5098725;28;20511;-61
2023/03/13 10:30:23;;;;;;;2.25;0.90;;;;;;;;;;5098029;28;20212;-60
2023/03/13 10:32:50;;;;;;;0.93;0.80;;;;;;;;;;5091665;28;20227;-60
2023/03/13 10:35:20;;;;;;;1.58;0.80;;;;;;;;;;5097554;28;20553;-59
2023/03/13 10:37:47;;;;;;;2.72;1.00;;;;;;;;;;5099091;28;20211;-61
2023/03/13 10:40:14;;;;;;;2.38;1.00;;;;;;;;;;5098179;28;20583;-61
2023/03/13 10:42:43;;;;;;;1.63;0.70;;;;;;;;;;5097070;28;20214;-61
2023/03/13 10:45:14;;;;;;;5.70;1.02;;;;;;;;;;5097268;28;20435;-60
2023/03/13 10:47:41;;;;;;;4.10;0.88;;;;;;;;;;5097807;28;20218;-60
2023/03/13 10:50:07;;;;;;;6.03;1.10;;;;;;;;;;5097320;28;20234;-60
2023/03/13 10:52:35;;;;;;;5.85;0.80;;;;;;;;;;5096453;28;20230;-60
2023/03/13 10:55:03;;;;;;;3.25;0.82;;;;;;;;;;5096733;28;20211;-60
2023/03/13 10:57:30;;;;;;;3.60;1.10;;;;;;;;;;5097743;28;20258;-60
2023/03/13 10:59:58;;;;;;;0.73;0.65;;;;;;;;;;5097532;28;20215;-61
2023/03/13 11:02:26;;;;;;;2.33;1.00;;;;;;;;;;5097229;28;20249;-60
2023/03/13 11:04:53;;;;;;;1.48;0.70;;;;;;;;;;5098229;28;20211;-60
2023/03/13 11:07:21;;;;;;;1.25;0.70;;;;;;;;;;5097604;28;20212;-60
2023/03/13 11:09:57;;;;;;;2.67;0.95;;;;;;;;;;5097739;28;20241;-60
2023/03/13 11:12:23;;;;;;;3.03;1.00;;;;;;;;;;5096670;28;20239;-60
2023/03/13 11:14:56;;;;;;;1.10;0.98;;;;;;;;;;5097018;28;20215;-60
2023/03/13 11:17:29;;;;;;;1.55;0.80;;;;;;;;;;5096266;28;20212;-60
2023/03/13 11:20:00;;;;;;;3.63;1.02;;;;;;;;;;5097140;28;20545;-60
2023/03/13 11:22:39;;;;;;;4.63;0.70;;;;;;;;;;5096943;28;20596;-60
2023/03/13 11:25:13;;;;;;;2.60;0.98;;;;;;;;;;5091916;28;20207;-60
2023/03/13 11:27:44;;;;;;;1.75;0.80;;;;;;;;;;5096385;28;20223;-60
2023/03/13 11:30:16;;;;;;;1.55;0.80;;;;;;;;;;5097633;28;20399;-60
2023/03/13 11:32:45;;;;;;;1.58;0.82;;;;;;;;;;5096937;28;20228;-60
2023/03/13 11:35:18;;;;;;;4.90;1.10;;;;;;;;;;5097274;28;20212;-60
2023/03/13 11:37:45;;;;;;;1.42;0.75;;;;;;;;;;5096970;28;20211;-60
2023/03/13 11:40:16;;;;;;;4.03;1.10;;;;;;;;;;5098044;28;20234;-60
2023/03/13 11:42:52;;;;;;;2.55;0.80;;;;;;;;;;5096800;28;20519;-60
2023/03/13 11:45:29;;;;;;;3.55;1.17;;;;;;;;;;5096965;28;20211;-60
2023/03/13 11:47:58;;;;;;;1.45;0.98;;;;;;;;;;5097743;28;20215;-61
2023/03/13 11:50:30;;;;;;;2.90;0.77;;;;;;;;;;5095689;28;20211;-60
2023/03/13 11:53:01;;;;;;;2.40;0.80;;;;;;;;;;5096123;28;20227;-60
2023/03/13 11:55:37;;;;;;;3.28;0.60;;;;;;;;;;5096639;28;20551;-60
2023/03/13 11:58:09;;;;;;;0.63;0.63;;;;;;;;;;5097280;28;20215;-60
2023/03/13 12:00:37;;;;;;;0.95;0.75;;;;;;;;;;5097097;28;20244;-60
2023/03/13 12:03:11;;;;;;;1.80;0.80;;;;;;;;;;5095520;28;20212;-60
2023/03/13 12:05:40;;;;;;;1.50;0.75;;;;;;;;;;5095580;28;20226;-61
2023/03/13 12:08:10;;;;;;;2.28;0.60;;;;;;;;;;5089910;28;20207;-60
2023/03/13 12:10:38;;;;;;;0.68;0.68;;;;;;;;;;5093867;28;20227;-59
2023/03/13 12:13:07;;;;;;;0.73;0.73;;;;;;;;;;5087069;28;20251;-61
2023/03/13 12:15:37;;;;;;;0.88;0.68;;;;;;;;;;5085926;28;20208;-60
2023/03/13 12:18:07;;;;;;;1.25;0.77;;;;;;;;;;5093646;28;20211;-60
2023/03/13 12:20:39;;;;;;;1.73;0.70;;;;;;;;;;5095565;28;20527;-60
2023/03/13 12:23:14;;;;;;;3.90;0.80;;;;;;;;;;5097042;28;20261;-60
2023/03/13 12:25:45;;;;;;;3.85;0.50;;;;;;;;;;5096957;28;20406;-60
2023/03/13 12:28:22;;;;;;;0.85;0.68;;;;;;;;;;5096289;28;20235;-61
2023/03/13 12:30:52;;;;;;;0.75;0.75;;;;;;;;;;5095776;28;20207;-62
2023/03/13 12:33:23;;;;;;;2.17;0.85;;;;;;;;;;5095290;28;20551;-60
2023/03/13 12:35:53;;;;;;;1.77;0.77;;;;;;;;;;5095602;28;20464;-60
2023/03/13 12:38:22;;;;;;;1.08;0.50;;;;;;;;;;5095249;28;20218;-60
2023/03/13 12:40:51;;;;;;;5.55;0.60;;;;;;;;;;5095198;28;20539;-60
2023/03/13 12:43:18;;;;;;;0.88;0.88;;;;;;;;;;5095015;28;20207;-60
2023/03/13 12:45:47;;;;;;;1.15;1.15;;;;;;;;;;5094660;28;20210;-60
2023/03/13 12:48:31;;;;;;;1.77;0.82;;;;;;;;;;5083261;28;20195;-60
2023/03/13 12:51:04;;;;;;;5.63;0.70;;;;;;;;;;5093891;28;20211;-60
2023/03/13 12:53:46;;;;;;;3.05;1.00;;;;;;;;;;5096467;28;20223;-61
2023/03/13 12:56:27;;;;;;;1.73;0.80;;;;;;;;;;5096288;28;20461;-59
2023/03/13 12:58:55;;;;;;;1.55;0.73;;;;;;;;;;5095502;28;20278;-63
2023/03/13 13:01:27;;;;;;;2.35;0.60;;;;;;;;;;5089914;28;20203;-61
2023/03/13 13:03:55;;;;;;;2.28;0.70;;;;;;;;;;5095146;28;20215;-58
2023/03/13 13:06:22;;;;;;;1.50;0.70;;;;;;;;;;5095292;28;20302;-60
2023/03/13 13:09:02;;;;;;;1.20;0.73;;;;;;;;;;5095448;28;20315;-59
2023/03/13 13:11:39;;;;;;;3.00;0.90;;;;;;;;;;5095587;28;20451;-60
2023/03/13 13:14:25;;;;;;;2.65;0.80;;;;;;;;;;5095602;28;20206;-60
2023/03/13 13:16:52;;;;;;;2.03;0.90;;;;;;;;;;5092000;28;20207;-60
2023/03/13 13:19:33;;;;;;;1.33;0.88;;;;;;;;;;5083277;28;20224;-60
2023/03/13 13:22:18;;;;;;;2.47;1.10;;;;;;;;;;5072502;28;20204;-59
2023/03/13 13:24:51;;;;;;;1.70;0.60;;;;;;;;;;5094029;28;20218;-60
2023/03/13 13:27:44;;;;;;;0.98;0.80;;;;;;;;;;5100091;28;20451;-60
2023/03/13 13:30:29;;;;;;;1.02;1.00;;;;;;;;;;5098589;28;20210;-60
2023/03/13 13:32:56;;;;;;;3.90;0.85;;;;;;;;;;5099065;28;20269;-60
2023/03/13 13:35:27;;;;;;;2.00;0.90;;;;;;;;;;5098708;28;20230;-60
2023/03/13 13:38:13;;;;;;;3.08;0.90;;;;;;;;;;5091236;28;20210;-60
2023/03/13 13:40:57;;;;;;;3.80;0.90;;;;;;;;;;5085916;28;20430;-60
2023/03/13 13:43:23;;;;;;;0.90;0.90;;;;;;;;;;5084679;28;20442;-61
2023/03/13 13:45:57;;;;;;;2.30;0.90;;;;;;;;;;5097370;28;20552;-61
2023/03/13 13:48:31;;;;;;;2.05;0.77;;;;;;;;;;5097924;28;20261;-60
2023/03/13 13:51:27;;;;;;;3.00;0.80;;;;;;;;;;5097823;28;20212;-60
2023/03/13 13:53:58;;;;;;;4.43;0.75;;;;;;;;;;5043711;28;20227;-59
2023/03/13 13:56:32;;;;;;;2.90;1.15;;;;;;;;;;5073978;28;20380;-58
2023/03/13 13:59:00;;;;;;;0.90;0.80;;;;;;;;;;5097918;28;20643;-59
2023/03/13 14:01:27;;;;;;;4.18;0.90;;;;;;;;;;5096900;28;20211;-59
2023/03/13 14:03:57;;;;;;;2.50;0.70;;;;;;;;;;5097601;28;20211;-59
2023/03/13 14:06:26;;;;;;;3.17;0.90;;;;;;;;;;5098171;28;20455;-59
2023/03/13 14:08:55;;;;;;;2.85;0.60;;;;;;;;;;5098061;28;20230;-60
2023/03/13 14:11:24;;;;;;;5.65;0.88;;;;;;;;;;5096694;28;20495;-59
2023/03/13 14:14:10;;;;;;;2.10;0.70;;;;;;;;;;5098549;28;20215;-59
2023/03/13 14:16:37;;;;;;;2.35;0.85;;;;;;;;;;5097309;28;20216;-60
2023/03/13 14:19:04;;;;;;;0.95;0.85;;;;;;;;;;5097512;28;20211;-59
2023/03/13 14:21:31;;;;;;;2.33;0.77;;;;;;;;;;5097008;28;20207;-59
2023/03/13 14:23:58;;;;;;;1.27;0.77;;;;;;;;;;5095527;28;20399;-60
2023/03/13 14:26:25;;;;;;;3.10;0.77;;;;;;;;;;5094645;28;20297;-60
2023/03/13 14:28:52;;;;;;;5.50;0.75;;;;;;;;;;5097560;28;20269;-60
2023/03/13 14:31:24;;;;;;;6.22;0.90;;;;;;;;;;5097131;28;20523;-59
2023/03/13 14:33:50;;;;;;;2.15;0.70;;;;;;;;;;5096694;28;20239;-60
2023/03/13 14:36:16;;;;;;;2.40;0.80;;;;;;;;;;5092447;28;20414;-60
2023/03/13 14:38:50;;;;;;;1.17;0.80;;;;;;;;;;5097843;28;20235;-60
2023/03/13 14:41:22;;;;;;;5.50;0.90;;;;;;;;;;5097392;28;20576;-60
2023/03/13 14:43:49;;;;;;;2.88;0.77;;;;;;;;;;5097552;28;20211;-60
2023/03/13 14:46:19;;;;;;;1.02;0.70;;;;;;;;;;5097133;28;20480;-60
2023/03/13 14:48:47;;;;;;;2.35;0.70;;;;;;;;;;5096605;28;20519;-60